RA73852 UUML-UUMD
Flight info
| Callsign | RA73852 |
|---|---|
| Flight time | 0h 14m |
| Altitude | 2500 |
| Route | ALONG HIGHWAY E30/ALONG RIVER OKA |
| Aircraft | C172/L-S/L |
Departure
| Time | 2026-04-29 12:22 |
|---|---|
| Airport | Severka Airfield (UUML) |
Arrival
| Time | 2026-04-29 12:36 |
|---|---|
| Airport | Selnikovo Airfield (UUMD) |
| Time | Latitude | Longitude | Altitude | Speed | Heading |
|---|---|---|---|---|---|
| 2026-04-29 11:55 | 55.20619 | 38.67565 | 429 ft | 0 kts | 154° |
| 2026-04-29 12:10 | 55.20612 | 38.67571 | 429 ft | 2 kts | 149° |
| 2026-04-29 12:10 | 55.20608 | 38.67583 | 429 ft | 0 kts | 86° |
| 2026-04-29 12:10 | 55.20622 | 38.67624 | 429 ft | 4 kts | 62° |
| 2026-04-29 12:11 | 55.20622 | 38.67671 | 429 ft | 5 kts | 153° |
| 2026-04-29 12:11 | 55.20605 | 38.67685 | 429 ft | 0 kts | 154° |
| 2026-04-29 12:18 | 55.20604 | 38.67685 | 429 ft | 0 kts | 154° |
| 2026-04-29 12:19 | 55.20583 | 38.67705 | 430 ft | 6 kts | 144° |
| 2026-04-29 12:19 | 55.20598 | 38.67765 | 430 ft | 7 kts | 52° |
| 2026-04-29 12:19 | 55.20636 | 38.67870 | 433 ft | 10 kts | 63° |
| 2026-04-29 12:19 | 55.20678 | 38.67984 | 435 ft | 18 kts | 58° |
| 2026-04-29 12:20 | 55.20766 | 38.68230 | 437 ft | 24 kts | 64° |
| 2026-04-29 12:20 | 55.20784 | 38.68287 | 438 ft | 1 kts | 337° |
| 2026-04-29 12:20 | 55.20786 | 38.68270 | 438 ft | 3 kts | 239° |
| 2026-04-29 12:20 | 55.20737 | 38.68149 | 437 ft | 32 kts | 237° |
| 2026-04-29 12:21 | 55.20513 | 38.67562 | 520 ft | 68 kts | 236° |
| 2026-04-29 12:21 | 55.20188 | 38.66939 | 767 ft | 72 kts | 220° |
| 2026-04-29 12:21 | 55.19739 | 38.66607 | 807 ft | 76 kts | 187° |
| 2026-04-29 12:21 | 55.19202 | 38.66705 | 914 ft | 80 kts | 174° |
| 2026-04-29 12:22 | 55.18619 | 38.66756 | 1037 ft | 85 kts | 183° |
| 2026-04-29 12:22 | 55.18039 | 38.66810 | 1188 ft | 89 kts | 177° |
| 2026-04-29 12:22 | 55.17399 | 38.66902 | 1308 ft | 92 kts | 174° |
| 2026-04-29 12:22 | 55.16775 | 38.67191 | 1411 ft | 95 kts | 155° |
| 2026-04-29 12:23 | 55.16244 | 38.67867 | 1492 ft | 98 kts | 139° |
| 2026-04-29 12:23 | 55.15736 | 38.68678 | 1583 ft | 99 kts | 130° |
| 2026-04-29 12:23 | 55.15348 | 38.69662 | 1655 ft | 98 kts | 114° |
| 2026-04-29 12:23 | 55.15033 | 38.70740 | 1741 ft | 98 kts | 110° |
| 2026-04-29 12:24 | 55.14748 | 38.71837 | 1808 ft | 100 kts | 105° |
| 2026-04-29 12:24 | 55.14492 | 38.73027 | 1730 ft | 114 kts | 109° |
| 2026-04-29 12:24 | 55.14148 | 38.74245 | 1776 ft | 110 kts | 118° |
| 2026-04-29 12:24 | 55.13763 | 38.75375 | 1838 ft | 106 kts | 112° |
| 2026-04-29 12:25 | 55.13380 | 38.76542 | 1783 ft | 115 kts | 120° |
| 2026-04-29 12:25 | 55.12985 | 38.77690 | 1891 ft | 105 kts | 112° |
| 2026-04-29 12:25 | 55.12289 | 38.80136 | 1792 ft | 113 kts | 107° |
| 2026-04-29 12:26 | 55.12000 | 38.81390 | 1778 ft | 111 kts | 109° |
| 2026-04-29 12:26 | 55.11701 | 38.82634 | 1691 ft | 116 kts | 106° |
| 2026-04-29 12:26 | 55.11431 | 38.83950 | 1720 ft | 118 kts | 103° |
| 2026-04-29 12:26 | 55.11162 | 38.85364 | 1757 ft | 122 kts | 105° |
| 2026-04-29 12:27 | 55.10879 | 38.86655 | 1708 ft | 110 kts | 110° |
| 2026-04-29 12:27 | 55.10588 | 38.87856 | 1661 ft | 111 kts | 110° |
| 2026-04-29 12:27 | 55.10248 | 38.89086 | 1703 ft | 112 kts | 111° |
| 2026-04-29 12:27 | 55.09783 | 38.90217 | 1712 ft | 116 kts | 124° |
| 2026-04-29 12:28 | 55.09274 | 38.91374 | 1705 ft | 118 kts | 128° |
| 2026-04-29 12:28 | 55.08795 | 38.92443 | 1605 ft | 104 kts | 125° |
| 2026-04-29 12:28 | 55.08418 | 38.93431 | 1537 ft | 93 kts | 115° |
| 2026-04-29 12:28 | 55.08228 | 38.94450 | 1436 ft | 85 kts | 86° |
| 2026-04-29 12:29 | 55.08274 | 38.95402 | 1374 ft | 73 kts | 72° |
| 2026-04-29 12:29 | 55.08347 | 38.96310 | 1299 ft | 74 kts | 69° |
| 2026-04-29 12:29 | 55.08444 | 38.97180 | 1298 ft | 72 kts | 67° |
| 2026-04-29 12:29 | 55.08563 | 38.98029 | 1354 ft | 75 kts | 64° |
| 2026-04-29 12:30 | 55.08688 | 38.98910 | 1564 ft | 79 kts | 59° |
| 2026-04-29 12:30 | 55.08863 | 38.99882 | 1591 ft | 83 kts | 63° |
| 2026-04-29 12:30 | 55.09052 | 39.00857 | 1556 ft | 86 kts | 59° |
| 2026-04-29 12:30 | 55.09232 | 39.01841 | 1557 ft | 86 kts | 64° |
| 2026-04-29 12:31 | 55.09421 | 39.02823 | 1575 ft | 82 kts | 61° |
| 2026-04-29 12:31 | 55.09618 | 39.03791 | 1548 ft | 86 kts | 64° |
| 2026-04-29 12:31 | 55.09746 | 39.04815 | 1567 ft | 85 kts | 77° |
| 2026-04-29 12:31 | 55.09745 | 39.05866 | 1558 ft | 88 kts | 85° |
| 2026-04-29 12:32 | 55.09739 | 39.06914 | 1576 ft | 83 kts | 79° |
| 2026-04-29 12:32 | 55.09852 | 39.07845 | 1555 ft | 77 kts | 53° |
| 2026-04-29 12:32 | 55.10089 | 39.08673 | 1546 ft | 73 kts | 50° |
| 2026-04-29 12:32 | 55.10324 | 39.09475 | 1503 ft | 76 kts | 51° |
| 2026-04-29 12:33 | 55.10568 | 39.10269 | 1503 ft | 71 kts | 47° |
| 2026-04-29 12:33 | 55.10818 | 39.11055 | 1448 ft | 76 kts | 50° |
| 2026-04-29 12:33 | 55.11062 | 39.11892 | 1402 ft | 80 kts | 66° |
| 2026-04-29 12:33 | 55.11151 | 39.12833 | 1381 ft | 70 kts | 42° |
| 2026-04-29 12:34 | 55.11522 | 39.13452 | 1191 ft | 75 kts | 27° |
| 2026-04-29 12:34 | 55.11922 | 39.13575 | 1110 ft | 56 kts | 303° |
| 2026-04-29 12:34 | 55.11746 | 39.13022 | 1018 ft | 67 kts | 198° |
| 2026-04-29 12:34 | 55.11352 | 39.13408 | 955 ft | 65 kts | 112° |
| 2026-04-29 12:35 | 55.11275 | 39.14162 | 892 ft | 61 kts | 84° |
| 2026-04-29 12:35 | 55.11265 | 39.14863 | 887 ft | 58 kts | 68° |
| 2026-04-29 12:35 | 55.11188 | 39.15608 | 920 ft | 75 kts | 133° |
| 2026-04-29 12:35 | 55.10910 | 39.15370 | 883 ft | 50 kts | 309° |
| 2026-04-29 12:36 | 55.11131 | 39.14958 | 835 ft | 46 kts | 317° |
| 2026-04-29 12:36 | 55.11366 | 39.14601 | 785 ft | 44 kts | 320° |
| 2026-04-29 12:36 | 55.11622 | 39.14305 | 758 ft | 46 kts | 327° |
| 2026-04-29 12:36 | 55.11916 | 39.14087 | 689 ft | 44 kts | 340° |
| 2026-04-29 12:37 | 55.12223 | 39.14062 | 565 ft | 46 kts | 4° |
| 2026-04-29 12:37 | 55.12529 | 39.14245 | 455 ft | 46 kts | 13° |
| 2026-04-29 12:37 | 55.12813 | 39.14448 | 374 ft | 41 kts | 12° |
| 2026-04-29 12:37 | 55.13058 | 39.14616 | 361 ft | 33 kts | 20° |
| 2026-04-29 12:38 | 55.13255 | 39.14755 | 361 ft | 26 kts | 27° |
| 2026-04-29 12:38 | 55.13365 | 39.14788 | 361 ft | 0 kts | 349° |
| 2026-04-29 12:38 | 55.13367 | 39.14788 | 361 ft | 0 kts | 359° |
| 2026-04-29 12:39 | 55.13373 | 39.14791 | 361 ft | 5 kts | 23° |
| 2026-04-29 12:39 | 55.13392 | 39.14790 | 361 ft | 0 kts | 346° |
| 2026-04-29 12:39 | 55.13403 | 39.14793 | 361 ft | 5 kts | 26° |
| 2026-04-29 12:39 | 55.13411 | 39.14811 | 361 ft | 0 kts | 82° |